createdAt,value
2024-03-08T00:01:45.237Z,2.17
2024-03-08T00:04:11.853Z,2.19
2024-03-08T00:06:38.476Z,2.16
2024-03-08T00:09:05.126Z,2.12
2024-03-08T00:11:31.827Z,2.08
2024-03-08T00:13:58.398Z,2.12
2024-03-08T00:16:25.045Z,2.10
2024-03-08T00:18:51.839Z,2.08
2024-03-08T00:21:18.545Z,2.25
2024-03-08T00:23:45.663Z,2.16
2024-03-08T00:26:12.253Z,2.08
2024-03-08T00:28:38.825Z,2.05
2024-03-08T00:31:05.424Z,2.08
2024-03-08T00:33:32.073Z,2.03
2024-03-08T00:35:58.765Z,1.95
2024-03-08T00:38:25.550Z,1.97
2024-03-08T00:40:52.123Z,1.92
2024-03-08T00:43:18.731Z,1.87
2024-03-08T00:45:45.280Z,1.87
2024-03-08T00:48:11.905Z,1.88
2024-03-08T00:50:38.649Z,1.83
2024-03-08T00:53:05.268Z,1.78
2024-03-08T00:55:31.893Z,1.75
2024-03-08T00:57:58.544Z,1.81
2024-03-08T01:00:25.185Z,1.82
2024-03-08T01:02:51.801Z,1.79
2024-03-08T01:05:18.395Z,1.75
2024-03-08T01:07:44.981Z,1.79
2024-03-08T01:10:11.791Z,1.84
2024-03-08T01:12:39.539Z,1.81
2024-03-08T01:15:06.851Z,1.80
2024-03-08T01:17:33.825Z,1.78
2024-03-08T01:20:00.580Z,1.75
2024-03-08T01:22:27.211Z,1.77
2024-03-08T01:24:53.811Z,1.70
2024-03-08T01:27:20.400Z,1.65
2024-03-08T01:29:47.103Z,1.59
2024-03-08T01:32:13.694Z,1.57
2024-03-08T01:34:40.275Z,1.62
2024-03-08T01:37:06.861Z,1.69
2024-03-08T01:39:33.821Z,1.78
2024-03-08T01:42:00.845Z,1.75
2024-03-08T01:44:27.544Z,1.66
2024-03-08T01:46:54.129Z,1.54
2024-03-08T01:49:21.841Z,1.60
2024-03-08T01:51:49.350Z,1.57
2024-03-08T01:54:17.310Z,1.55
2024-03-08T01:56:43.992Z,1.56
2024-03-08T01:59:10.688Z,1.59
2024-03-08T02:01:37.288Z,1.53
2024-03-08T02:04:03.873Z,1.45
2024-03-08T02:06:30.543Z,1.39
2024-03-08T02:08:57.180Z,1.32
2024-03-08T02:11:23.766Z,1.36
2024-03-08T02:13:50.386Z,1.27
2024-03-08T02:16:23.164Z,1.27
2024-03-08T02:18:49.911Z,1.31
2024-03-08T02:21:18.174Z,1.24
2024-03-08T02:23:44.952Z,1.22
2024-03-08T02:26:11.646Z,1.23
2024-03-08T02:28:38.233Z,1.18
2024-03-08T02:31:04.847Z,1.15
2024-03-08T02:33:31.689Z,1.11
2024-03-08T02:35:58.393Z,1.09
2024-03-08T02:38:25.013Z,1.08
2024-03-08T02:40:52.398Z,1.13
2024-03-08T02:43:19.873Z,1.12
2024-03-08T02:45:46.647Z,1.16
2024-03-08T02:48:13.899Z,1.14
2024-03-08T02:50:40.589Z,1.11
2024-03-08T02:53:07.316Z,1.13
2024-03-08T02:55:33.960Z,1.07
2024-03-08T02:58:00.589Z,1.01
2024-03-08T03:00:27.176Z,1.04
2024-03-08T03:02:53.792Z,1.06
2024-03-08T03:05:23.783Z,1.10
2024-03-08T03:07:50.805Z,1.15
2024-03-08T03:10:20.654Z,1.03
2024-03-08T03:12:47.085Z,1.08
2024-03-08T03:15:13.981Z,1.03
2024-03-08T03:17:41.058Z,1.00
2024-03-08T03:20:11.039Z,0.94
2024-03-08T03:22:37.860Z,0.88
2024-03-08T03:25:04.572Z,0.86
2024-03-08T03:27:31.301Z,0.85
2024-03-08T03:29:57.918Z,0.78
2024-03-08T03:32:24.669Z,0.70
2024-03-08T03:34:51.330Z,0.74
2024-03-08T03:37:17.900Z,0.78
2024-03-08T03:39:44.528Z,0.72
2024-03-08T03:42:11.204Z,0.75
2024-03-08T03:44:37.887Z,0.73
2024-03-08T03:47:04.479Z,0.76
2024-03-08T03:49:31.075Z,0.69
2024-03-08T03:51:57.640Z,0.65
2024-03-08T03:54:24.209Z,0.64
2024-03-08T03:56:51.035Z,0.54
2024-03-08T03:59:17.668Z,0.51
2024-03-08T04:01:44.312Z,0.49
2024-03-08T04:04:10.971Z,0.51
2024-03-08T04:06:37.585Z,0.50
2024-03-08T04:09:04.376Z,0.50
2024-03-08T04:11:31.054Z,0.46
2024-03-08T04:13:57.721Z,0.42
2024-03-08T04:16:24.310Z,0.48
2024-03-08T04:18:51.035Z,0.48
2024-03-08T04:21:18.038Z,0.52
2024-03-08T04:23:44.669Z,0.45
2024-03-08T04:26:11.321Z,0.47
2024-03-08T04:28:38.123Z,0.47
2024-03-08T04:31:04.967Z,0.42
2024-03-08T04:33:31.620Z,0.49
2024-03-08T04:35:58.308Z,0.44
2024-03-08T04:38:24.935Z,0.43
2024-03-08T04:40:51.527Z,0.45
2024-03-08T04:43:18.288Z,0.44
2024-03-08T04:45:45.243Z,0.51
2024-03-08T04:48:11.965Z,0.51
2024-03-08T04:50:38.652Z,0.45
2024-03-08T04:53:05.254Z,0.37
2024-03-08T04:55:31.873Z,0.33
2024-03-08T04:57:58.437Z,0.33
2024-03-08T05:00:25.018Z,0.30
2024-03-08T05:02:51.680Z,0.31
2024-03-08T05:05:18.242Z,0.32
2024-03-08T05:07:45.071Z,0.31
2024-03-08T05:10:11.642Z,0.29
2024-03-08T05:12:38.503Z,0.25
2024-03-08T05:15:05.973Z,0.22
2024-03-08T05:17:32.695Z,0.23
2024-03-08T05:19:59.605Z,0.24
2024-03-08T05:22:26.454Z,0.23
2024-03-08T05:24:53.237Z,0.23
2024-03-08T05:27:20.097Z,0.19
2024-03-08T05:29:46.723Z,0.26
2024-03-08T05:32:13.410Z,0.31
2024-03-08T05:34:40.037Z,0.28
2024-03-08T05:37:06.606Z,0.28
2024-03-08T05:39:33.194Z,0.27
2024-03-08T05:41:59.835Z,0.24
2024-03-08T05:44:26.452Z,0.26
2024-03-08T05:46:52.992Z,0.28
2024-03-08T05:49:19.629Z,0.24
2024-03-08T05:51:46.208Z,0.21
2024-03-08T05:54:15.340Z,0.18
2024-03-08T05:56:43.898Z,0.25
2024-03-08T05:59:11.025Z,0.24
2024-03-08T06:01:37.741Z,0.24
2024-03-08T06:04:04.678Z,0.27
2024-03-08T06:06:31.248Z,0.31
2024-03-08T06:08:57.911Z,0.31
2024-03-08T06:11:24.706Z,0.34
2024-03-08T06:13:51.348Z,0.30
2024-03-08T06:16:17.935Z,0.25
2024-03-08T06:18:45.016Z,0.26
2024-03-08T06:21:11.779Z,0.23
2024-03-08T06:23:38.879Z,0.34
2024-03-08T06:26:06.027Z,0.41
2024-03-08T06:28:32.588Z,0.47
2024-03-08T06:31:02.470Z,0.52
2024-03-08T06:33:29.226Z,0.56
2024-03-08T06:35:56.324Z,0.56
2024-03-08T06:38:23.010Z,0.61
2024-03-08T06:40:49.629Z,0.69
2024-03-08T06:43:16.232Z,0.70
2024-03-08T06:45:43.688Z,0.70
2024-03-08T06:48:10.340Z,0.77
2024-03-08T06:50:37.062Z,0.76
2024-03-08T06:53:03.795Z,0.82
2024-03-08T06:55:30.414Z,0.86
2024-03-08T06:57:56.957Z,0.85
2024-03-08T07:00:23.620Z,0.83
2024-03-08T07:02:50.266Z,0.91
2024-03-08T07:05:16.993Z,1.03
2024-03-08T07:07:43.652Z,1.14
2024-03-08T07:10:10.420Z,1.16
2024-03-08T07:12:37.056Z,1.19
2024-03-08T07:15:03.934Z,1.28
2024-03-08T07:17:30.599Z,1.27
2024-03-08T07:19:57.335Z,1.24
2024-03-08T07:22:23.878Z,1.25
2024-03-08T07:24:50.509Z,1.33
2024-03-08T07:27:18.141Z,1.42
2024-03-08T07:29:44.901Z,1.49
2024-03-08T07:32:11.544Z,1.58
2024-03-08T07:34:38.139Z,1.65
2024-03-08T07:37:06.592Z,1.68
2024-03-08T07:39:34.558Z,1.74
2024-03-08T07:42:01.238Z,1.76
2024-03-08T07:44:27.913Z,1.87
2024-03-08T07:46:57.797Z,2.02
2024-03-08T07:49:24.759Z,2.01
2024-03-08T07:51:51.507Z,2.04
2024-03-08T07:54:18.114Z,2.11
2024-03-08T07:56:44.716Z,2.29
2024-03-08T07:59:11.217Z,2.33
2024-03-08T08:01:37.959Z,2.33
2024-03-08T08:04:04.571Z,2.39
2024-03-08T08:06:31.162Z,2.45
2024-03-08T08:08:57.742Z,2.53
2024-03-08T08:11:26.998Z,2.66
2024-03-08T08:13:53.686Z,2.76
2024-03-08T08:16:20.389Z,2.90
2024-03-08T08:18:47.006Z,3.01
2024-03-08T08:21:13.633Z,3.05
2024-03-08T08:23:40.192Z,3.12
2024-03-08T08:26:06.857Z,3.16
2024-03-08T08:28:33.522Z,3.25
2024-03-08T08:31:00.169Z,3.34
2024-03-08T08:33:26.929Z,3.43
2024-03-08T08:35:53.499Z,3.44
2024-03-08T08:38:20.327Z,3.55
2024-03-08T08:40:47.227Z,3.62
2024-03-08T08:43:14.518Z,3.72
2024-03-08T08:45:41.220Z,3.69
2024-03-08T08:48:08.037Z,3.81
2024-03-08T08:50:34.732Z,3.98
2024-03-08T08:53:01.408Z,4.02
2024-03-08T08:55:28.226Z,4.12
2024-03-08T08:57:55.109Z,4.20
2024-03-08T09:00:21.859Z,4.29
2024-03-08T09:02:48.526Z,4.38
2024-03-08T09:05:15.356Z,4.47
2024-03-08T09:07:42.061Z,4.60
2024-03-08T09:10:17.069Z,4.64
2024-03-08T09:12:45.023Z,4.72
2024-03-08T09:15:12.675Z,4.79
2024-03-08T09:17:39.779Z,4.76
2024-03-08T09:20:09.481Z,4.73
2024-03-08T09:22:36.335Z,4.73
2024-03-08T09:25:03.182Z,4.76
2024-03-08T09:27:29.781Z,4.92
2024-03-08T09:29:56.359Z,5.07
2024-03-08T09:32:22.919Z,5.09
2024-03-08T09:34:49.603Z,5.11
2024-03-08T09:37:16.281Z,5.08
2024-03-08T09:39:42.999Z,5.16
2024-03-08T09:42:09.609Z,5.21
2024-03-08T09:44:36.214Z,5.21
2024-03-08T09:47:02.887Z,5.20
2024-03-08T09:49:29.585Z,5.25
2024-03-08T09:51:56.507Z,5.36
2024-03-08T09:54:24.677Z,5.35
2024-03-08T09:56:52.566Z,5.41
2024-03-08T09:59:19.178Z,5.45
2024-03-08T10:01:45.891Z,5.51
2024-03-08T10:04:12.725Z,5.55
2024-03-08T10:06:39.341Z,5.54
2024-03-08T10:09:05.889Z,5.60
2024-03-08T10:11:32.521Z,5.64
2024-03-08T10:13:59.169Z,5.68
2024-03-08T10:16:28.201Z,5.69
2024-03-08T10:18:54.811Z,5.69
2024-03-08T10:21:21.494Z,5.66
2024-03-08T10:23:48.079Z,5.64
2024-03-08T10:26:15.938Z,5.67
2024-03-08T10:28:46.487Z,5.70
2024-03-08T10:31:14.870Z,5.74
2024-03-08T10:33:42.784Z,5.70
2024-03-08T10:36:09.601Z,5.84
2024-03-08T10:38:39.848Z,5.81
2024-03-08T10:41:06.474Z,5.87
2024-03-08T10:43:41.740Z,5.92
2024-03-08T10:46:25.013Z,5.92
2024-03-08T10:48:51.635Z,5.92
2024-03-08T10:51:18.207Z,5.97
2024-03-08T10:53:45.053Z,5.93
2024-03-08T10:56:11.871Z,5.95
2024-03-08T10:58:38.624Z,6.00
2024-03-08T11:01:05.363Z,6.01
2024-03-08T11:03:44.133Z,6.07
2024-03-08T11:06:39.230Z,6.04
2024-03-08T11:09:31.151Z,6.15
2024-03-08T11:12:27.775Z,6.13
2024-03-08T11:14:55.448Z,6.14
2024-03-08T11:17:34.328Z,6.20
2024-03-08T11:20:01.115Z,6.25
2024-03-08T11:22:29.342Z,6.31
2024-03-08T11:25:05.594Z,6.37
2024-03-08T11:27:32.332Z,6.45
2024-03-08T11:30:03.665Z,6.48
2024-03-08T11:32:30.617Z,6.49
2024-03-08T11:34:57.330Z,6.53
2024-03-08T11:37:24.011Z,6.52
2024-03-08T11:39:51.713Z,6.57
2024-03-08T11:42:18.838Z,6.64
2024-03-08T11:44:46.374Z,6.75
2024-03-08T11:47:13.347Z,6.83
2024-03-08T11:49:40.096Z,6.85
2024-03-08T11:52:06.812Z,6.89
2024-03-08T11:54:33.421Z,7.01
2024-03-08T11:57:00.055Z,7.04
2024-03-08T11:59:26.618Z,7.07
2024-03-08T12:02:03.975Z,7.09
2024-03-08T12:04:31.139Z,7.13
2024-03-08T12:07:02.299Z,7.24
2024-03-08T12:09:29.682Z,7.44
2024-03-08T12:11:56.385Z,7.58
2024-03-08T12:14:22.994Z,7.64
2024-03-08T12:16:49.850Z,7.70
2024-03-08T12:19:16.515Z,7.75
2024-03-08T12:21:43.449Z,7.85
2024-03-08T12:24:10.489Z,7.99
2024-03-08T12:26:37.890Z,8.16
2024-03-08T12:29:24.791Z,8.33
2024-03-08T12:32:01.046Z,8.42
2024-03-08T12:34:28.148Z,8.53
2024-03-08T12:36:54.797Z,8.60
2024-03-08T12:39:22.260Z,8.70
2024-03-08T12:41:48.973Z,8.88
2024-03-08T12:44:15.539Z,9.04
2024-03-08T12:46:42.137Z,9.20
2024-03-08T12:49:09.295Z,9.28
2024-03-08T12:51:36.034Z,9.33
2024-03-08T12:54:04.380Z,9.38
2024-03-08T12:56:33.224Z,9.40
2024-03-08T12:58:59.978Z,9.38
2024-03-08T13:01:27.142Z,9.42
2024-03-08T13:03:54.416Z,9.52
2024-03-08T13:06:21.107Z,9.67
2024-03-08T13:08:47.723Z,9.76
2024-03-08T13:11:14.442Z,9.99
2024-03-08T13:13:41.808Z,10.38
2024-03-08T13:16:08.578Z,11.10
2024-03-08T13:18:38.380Z,12.15
2024-03-08T13:21:05.396Z,13.47
2024-03-08T13:23:32.000Z,14.78
2024-03-08T13:25:58.649Z,15.58
2024-03-08T13:28:25.280Z,16.39
2024-03-08T13:30:56.082Z,17.36
2024-03-08T13:33:25.209Z,17.51
2024-03-08T13:35:52.126Z,18.41
2024-03-08T13:38:18.863Z,19.25
2024-03-08T13:40:45.598Z,20.17
2024-03-08T13:43:12.274Z,20.53
2024-03-08T13:45:38.890Z,20.88
2024-03-08T13:48:06.066Z,21.30
2024-03-08T13:50:32.785Z,20.97
2024-03-08T13:52:59.427Z,21.08
2024-03-08T13:55:26.166Z,21.58
2024-03-08T13:57:52.899Z,22.17
2024-03-08T14:00:19.860Z,22.63
2024-03-08T14:02:46.851Z,22.96
2024-03-08T14:05:13.662Z,23.30
2024-03-08T14:07:40.342Z,22.80
2024-03-08T14:10:07.568Z,22.28
2024-03-08T14:12:34.422Z,21.19
2024-03-08T14:15:01.030Z,20.79
2024-03-08T14:17:27.677Z,20.46
2024-03-08T14:19:55.486Z,20.52
2024-03-08T14:22:22.274Z,20.83
2024-03-08T14:24:48.904Z,19.93
2024-03-08T14:27:15.482Z,18.49
2024-03-08T14:29:42.174Z,17.44
2024-03-08T14:32:08.828Z,16.33
2024-03-08T14:34:35.463Z,15.36
2024-03-08T14:37:04.426Z,15.02
2024-03-08T14:39:32.923Z,14.76
2024-03-08T14:41:59.606Z,14.32
2024-03-08T14:44:26.233Z,14.19
2024-03-08T14:46:59.190Z,14.69
2024-03-08T14:49:26.181Z,15.51
2024-03-08T14:51:53.048Z,14.47
2024-03-08T14:54:19.685Z,13.83
2024-03-08T14:56:46.340Z,14.02
2024-03-08T14:59:12.934Z,14.36
2024-03-08T15:01:39.668Z,14.83
2024-03-08T15:04:06.328Z,13.97
2024-03-08T15:06:32.947Z,13.36
2024-03-08T15:08:59.627Z,13.74
2024-03-08T15:11:26.558Z,13.35
2024-03-08T15:13:53.523Z,12.64
2024-03-08T15:16:20.438Z,11.48
2024-03-08T15:18:49.764Z,12.65
2024-03-08T15:21:18.040Z,12.69
2024-03-08T15:23:44.723Z,12.23
2024-03-08T15:26:11.407Z,14.02
2024-03-08T15:28:38.231Z,13.12
2024-03-08T15:31:05.404Z,11.94
2024-03-08T15:33:32.112Z,12.38
2024-03-08T15:35:58.899Z,13.30
2024-03-08T15:38:26.372Z,13.05
2024-03-08T15:40:53.047Z,13.73
2024-03-08T15:43:19.722Z,14.34
2024-03-08T15:45:46.775Z,13.91
2024-03-08T15:48:13.912Z,12.99
2024-03-08T15:50:40.651Z,11.94
2024-03-08T15:53:07.348Z,11.25
2024-03-08T15:55:34.084Z,10.42
2024-03-08T15:58:00.799Z,9.81
2024-03-08T16:00:27.600Z,9.43
2024-03-08T16:02:54.293Z,9.18
2024-03-08T16:05:20.925Z,8.86
2024-03-08T16:07:47.595Z,8.75
2024-03-08T16:10:14.293Z,8.68
2024-03-08T16:12:40.885Z,8.43
2024-03-08T16:15:09.765Z,8.34
2024-03-08T16:17:36.507Z,8.29
2024-03-08T16:20:03.244Z,8.20
2024-03-08T16:22:29.920Z,8.13
2024-03-08T16:24:56.604Z,8.13
2024-03-08T16:27:23.192Z,8.07
2024-03-08T16:29:49.865Z,8.10
2024-03-08T16:32:16.486Z,8.07
2024-03-08T16:34:43.224Z,7.99
2024-03-08T16:37:09.820Z,7.88
2024-03-08T16:39:36.465Z,7.84
2024-03-08T16:42:03.076Z,7.75
2024-03-08T16:44:29.781Z,7.68
2024-03-08T16:47:00.723Z,7.73
2024-03-08T16:49:27.402Z,7.68
2024-03-08T16:51:53.976Z,7.62
2024-03-08T16:54:20.635Z,7.70
2024-03-08T16:56:47.216Z,7.62
2024-03-08T16:59:13.866Z,7.62
2024-03-08T17:01:40.471Z,7.41
2024-03-08T17:04:07.152Z,7.32
2024-03-08T17:06:33.752Z,7.40
2024-03-08T17:09:00.343Z,7.38
2024-03-08T17:11:27.194Z,7.31
2024-03-08T17:13:53.911Z,7.25
2024-03-08T17:16:20.591Z,7.23
2024-03-08T17:18:47.178Z,7.18
2024-03-08T17:21:13.781Z,7.08
2024-03-08T17:23:43.198Z,6.98
2024-03-08T17:26:10.129Z,6.98
2024-03-08T17:28:36.896Z,6.88
2024-03-08T17:31:03.712Z,6.79
2024-03-08T17:33:30.304Z,6.83
2024-03-08T17:35:56.965Z,6.77
2024-03-08T17:38:23.561Z,6.71
2024-03-08T17:40:50.211Z,6.57
2024-03-08T17:43:16.898Z,6.48
2024-03-08T17:45:43.551Z,6.49
2024-03-08T17:48:10.352Z,6.47
2024-03-08T17:50:36.957Z,6.45
2024-03-08T17:53:03.606Z,6.50
2024-03-08T17:55:30.259Z,6.62
2024-03-08T17:57:56.854Z,6.52
2024-03-08T18:00:23.824Z,6.38
2024-03-08T18:02:50.384Z,6.31
2024-03-08T18:05:19.456Z,6.31
2024-03-08T18:07:46.639Z,6.33
2024-03-08T18:10:13.305Z,6.31
2024-03-08T18:12:39.916Z,6.31
2024-03-08T18:15:06.892Z,6.25
2024-03-08T18:17:33.495Z,6.26
2024-03-08T18:20:00.183Z,6.15
2024-03-08T18:22:26.926Z,6.09
2024-03-08T18:24:53.583Z,6.04
2024-03-08T18:27:20.160Z,5.97
2024-03-08T18:29:46.765Z,6.03
2024-03-08T18:32:13.320Z,6.07
2024-03-08T18:34:39.926Z,6.13
2024-03-08T18:37:06.686Z,6.03
2024-03-08T18:39:33.281Z,6.00
2024-03-08T18:41:59.877Z,6.00
2024-03-08T18:44:26.478Z,6.01
2024-03-08T18:46:53.128Z,5.95
2024-03-08T18:49:19.746Z,5.89
2024-03-08T18:51:46.371Z,5.89
2024-03-08T18:54:12.955Z,5.87
2024-03-08T18:56:39.539Z,5.99
2024-03-08T18:59:06.247Z,5.97
2024-03-08T19:01:32.954Z,5.95
2024-03-08T19:03:59.603Z,5.88
2024-03-08T19:06:26.109Z,5.81
2024-03-08T19:08:52.740Z,5.79
2024-03-08T19:11:19.643Z,5.74
2024-03-08T19:13:46.401Z,5.69
2024-03-08T19:16:13.095Z,5.73
2024-03-08T19:18:39.689Z,5.81
2024-03-08T19:21:06.273Z,5.75
2024-03-08T19:23:32.876Z,5.61
2024-03-08T19:25:59.566Z,5.50
2024-03-08T19:28:26.249Z,5.48
2024-03-08T19:30:52.876Z,5.54
2024-03-08T19:33:19.505Z,5.53
2024-03-08T19:35:46.203Z,5.49
2024-03-08T19:38:13.364Z,5.43
2024-03-08T19:40:40.299Z,5.40
2024-03-08T19:43:07.245Z,5.42
2024-03-08T19:45:34.145Z,5.47
2024-03-08T19:48:02.052Z,5.45
2024-03-08T19:50:29.182Z,5.41
2024-03-08T19:52:56.392Z,5.34
2024-03-08T19:55:23.360Z,5.37
2024-03-08T19:57:51.840Z,5.27
2024-03-08T20:00:19.609Z,5.22
2024-03-08T20:02:47.047Z,5.21
2024-03-08T20:05:14.207Z,5.20
2024-03-08T20:07:41.912Z,5.22
2024-03-08T20:10:11.970Z,5.20
2024-03-08T20:12:39.433Z,5.19
2024-03-08T20:15:07.009Z,5.17
2024-03-08T20:17:33.605Z,5.19
2024-03-08T20:20:00.301Z,5.19
2024-03-08T20:22:27.048Z,5.29
2024-03-08T20:24:53.694Z,5.30
2024-03-08T20:27:20.325Z,5.29
2024-03-08T20:29:46.907Z,5.27
2024-03-08T20:32:13.612Z,5.23
2024-03-08T20:34:40.224Z,5.20
2024-03-08T20:37:06.904Z,5.14
2024-03-08T20:39:33.550Z,5.09
2024-03-08T20:42:00.154Z,5.02
2024-03-08T20:44:26.733Z,5.01
2024-03-08T20:46:53.362Z,4.97
2024-03-08T20:49:20.004Z,5.05
2024-03-08T20:51:46.888Z,5.08
2024-03-08T20:54:13.418Z,5.08
2024-03-08T20:56:42.289Z,5.12
2024-03-08T20:59:09.205Z,5.19
2024-03-08T21:01:35.957Z,5.18
2024-03-08T21:04:02.589Z,5.13
2024-03-08T21:06:29.252Z,5.24
2024-03-08T21:08:55.818Z,5.16
2024-03-08T21:11:25.618Z,5.22
2024-03-08T21:13:52.253Z,5.18
2024-03-08T21:16:18.943Z,5.19
2024-03-08T21:18:45.564Z,5.14
2024-03-08T21:21:12.134Z,5.07
2024-03-08T21:23:38.708Z,5.14
2024-03-08T21:26:05.339Z,5.11
2024-03-08T21:28:31.965Z,5.21
2024-03-08T21:30:58.564Z,5.27
2024-03-08T21:33:25.173Z,5.10
2024-03-08T21:35:51.790Z,5.17
2024-03-08T21:38:18.351Z,5.03
2024-03-08T21:40:57.263Z,5.06
2024-03-08T21:43:29.583Z,5.06
2024-03-08T21:45:56.265Z,5.05
2024-03-08T21:48:23.147Z,5.13
2024-03-08T21:50:49.904Z,5.19
2024-03-08T21:53:23.496Z,5.16
2024-03-08T21:55:54.497Z,5.21
2024-03-08T21:58:21.116Z,5.09
2024-03-08T22:00:47.726Z,5.00
2024-03-08T22:03:14.465Z,4.94
2024-03-08T22:05:41.061Z,4.94
2024-03-08T22:08:07.642Z,5.04
2024-03-08T22:10:34.293Z,4.94
2024-03-08T22:13:00.895Z,4.99
2024-03-08T22:15:27.529Z,4.98
2024-03-08T22:17:54.301Z,4.80
2024-03-08T22:20:21.046Z,4.72
2024-03-08T22:22:48.026Z,4.72
2024-03-08T22:25:14.918Z,4.69
2024-03-08T22:27:41.522Z,4.72
2024-03-08T22:30:09.510Z,4.78
2024-03-08T22:32:36.182Z,4.82
2024-03-08T22:35:03.553Z,4.75
2024-03-08T22:37:30.168Z,4.76
2024-03-08T22:39:58.447Z,4.70
2024-03-08T22:42:25.268Z,4.67
2024-03-08T22:44:51.852Z,4.64
2024-03-08T22:47:18.531Z,4.74
2024-03-08T22:49:45.218Z,4.70
2024-03-08T22:52:11.906Z,4.65
2024-03-08T22:54:38.591Z,4.64
2024-03-08T22:57:05.252Z,4.63
2024-03-08T22:59:31.811Z,4.57
2024-03-08T23:01:58.472Z,4.45
2024-03-08T23:04:25.097Z,4.39
2024-03-08T23:06:51.768Z,4.37
2024-03-08T23:09:18.306Z,4.39
2024-03-08T23:11:44.957Z,4.42
2024-03-08T23:14:11.629Z,4.48
2024-03-08T23:16:38.929Z,4.52
2024-03-08T23:19:05.594Z,4.44
2024-03-08T23:21:32.251Z,4.38
2024-03-08T23:23:58.860Z,4.38
2024-03-08T23:26:25.423Z,4.48
2024-03-08T23:28:52.052Z,4.37
2024-03-08T23:31:18.731Z,4.30
2024-03-08T23:33:45.338Z,4.31
2024-03-08T23:36:12.002Z,4.24
2024-03-08T23:38:38.608Z,4.28
2024-03-08T23:41:05.507Z,4.31
2024-03-08T23:43:32.223Z,4.32
2024-03-08T23:45:58.868Z,4.37
2024-03-08T23:48:25.457Z,4.32
2024-03-08T23:50:52.101Z,4.33
2024-03-08T23:53:18.795Z,4.29
2024-03-08T23:55:45.417Z,4.22
2024-03-08T23:58:12.903Z,4.23
